Time;durP1;ratioP1;P1;durP2;ratioP2;P2;SDS_P1;SDS_P2;PMS_P1;PMS_P2;Temp;Humidity;BMP_temperature;BMP_pressure;BME280_temperature;BME280_humidity;BME280_pressure;Samples;Min_cycle;Max_cycle;Signal;HPM_P1;HPM_P2
2023/05/20 00:00:25;;;;;;;6.18;2.53;;;;;;;;;;5041882;28;20033;-78
2023/05/20 00:02:50;;;;;;;4.82;2.50;;;;;;;;;;5034113;28;20025;-77
2023/05/20 00:05:15;;;;;;;6.10;2.58;;;;;;;;;;5051206;28;20028;-77
2023/05/20 00:07:41;;;;;;;6.03;2.50;;;;;;;;;;5050860;28;20081;-78
2023/05/20 00:10:06;;;;;;;5.80;2.50;;;;;;;;;;5046269;28;20031;-78
2023/05/20 00:12:33;;;;;;;5.78;2.63;;;;;;;;;;5050824;28;20021;-78
2023/05/20 00:14:59;;;;;;;5.95;2.58;;;;;;;;;;5031007;28;20025;-77
2023/05/20 00:17:26;;;;;;;5.28;2.75;;;;;;;;;;5048364;28;20108;-77
2023/05/20 00:19:52;;;;;;;5.00;2.50;;;;;;;;;;5026078;28;20032;-78
2023/05/20 00:22:17;;;;;;;4.78;2.50;;;;;;;;;;5025976;28;20108;-78
2023/05/20 00:24:43;;;;;;;5.85;2.70;;;;;;;;;;5033496;28;20024;-77
2023/05/20 00:27:08;;;;;;;4.97;2.60;;;;;;;;;;5050646;28;20025;-78
2023/05/20 00:29:34;;;;;;;5.65;2.72;;;;;;;;;;5042807;28;20473;-77
2023/05/20 00:31:59;;;;;;;5.80;2.60;;;;;;;;;;5051993;28;20028;-77
2023/05/20 00:34:24;;;;;;;6.03;2.72;;;;;;;;;;5046875;28;20031;-78
2023/05/20 00:36:50;;;;;;;4.47;2.50;;;;;;;;;;5050847;28;20029;-77
2023/05/20 00:39:16;;;;;;;5.18;2.50;;;;;;;;;;5031116;28;20022;-77
2023/05/20 00:41:41;;;;;;;5.38;2.55;;;;;;;;;;5032910;28;20488;-78
2023/05/20 00:44:06;;;;;;;6.82;2.60;;;;;;;;;;5051349;28;20051;-78
2023/05/20 00:46:32;;;;;;;5.40;2.50;;;;;;;;;;5029677;28;20025;-77
2023/05/20 00:48:57;;;;;;;5.60;2.80;;;;;;;;;;5028346;28;20384;-78
2023/05/20 00:51:23;;;;;;;5.35;2.35;;;;;;;;;;5045089;28;20036;-78
2023/05/20 00:53:49;;;;;;;4.55;2.67;;;;;;;;;;5032728;28;20573;-77
2023/05/20 00:56:15;;;;;;;6.28;2.83;;;;;;;;;;5030179;28;20033;-78
2023/05/20 00:58:40;;;;;;;6.15;2.80;;;;;;;;;;5028807;28;20326;-78
2023/05/20 01:01:05;;;;;;;5.97;2.85;;;;;;;;;;5042504;28;20037;-78
2023/05/20 01:03:31;;;;;;;8.15;2.95;;;;;;;;;;5030192;28;20084;-77
2023/05/20 01:05:57;;;;;;;4.78;3.08;;;;;;;;;;5051411;28;20025;-78
2023/05/20 01:08:24;;;;;;;5.85;3.50;;;;;;;;;;5055300;28;20029;-78
2023/05/20 01:11:05;;;;;;;8.45;3.40;;;;;;;;;;5029729;28;20032;-77
2023/05/20 01:13:37;;;;;;;7.90;3.33;;;;;;;;;;5056777;28;20036;-78
2023/05/20 01:16:04;;;;;;;6.25;3.45;;;;;;;;;;5044219;28;20164;-77
2023/05/20 01:18:31;;;;;;;6.05;3.22;;;;;;;;;;5036981;28;20624;-75
2023/05/20 01:21:01;;;;;;;6.18;3.10;;;;;;;;;;5034114;28;20029;-78
2023/05/20 01:23:32;;;;;;;6.45;3.20;;;;;;;;;;5032349;28;20029;-76
2023/05/20 01:25:58;;;;;;;8.38;3.45;;;;;;;;;;5032362;28;20117;-78
2023/05/20 01:28:23;;;;;;;5.68;3.33;;;;;;;;;;5028474;28;20123;-78
2023/05/20 01:30:55;;;;;;;6.85;3.30;;;;;;;;;;5048049;28;20115;-77
2023/05/20 01:33:24;;;;;;;7.50;3.67;;;;;;;;;;5052357;28;20028;-78
2023/05/20 01:35:50;;;;;;;7.65;3.63;;;;;;;;;;5055031;28;20032;-78
2023/05/20 01:38:18;;;;;;;7.03;3.42;;;;;;;;;;5054340;28;20032;-77
2023/05/20 01:40:45;;;;;;;6.65;3.47;;;;;;;;;;5049017;28;20025;-78
2023/05/20 01:43:11;;;;;;;7.75;3.60;;;;;;;;;;5050781;28;20473;-78
2023/05/20 01:45:38;;;;;;;5.68;3.13;;;;;;;;;;5050376;28;20028;-78
2023/05/20 01:48:04;;;;;;;6.15;3.42;;;;;;;;;;5032521;28;20158;-78
2023/05/20 01:50:29;;;;;;;6.70;3.70;;;;;;;;;;5056414;28;20108;-78
2023/05/20 01:52:55;;;;;;;6.28;3.60;;;;;;;;;;5046737;28;20039;-77
2023/05/20 01:55:20;;;;;;;6.93;3.42;;;;;;;;;;5045055;28;20025;-77
2023/05/20 01:57:46;;;;;;;5.75;3.40;;;;;;;;;;5050106;28;20028;-77
2023/05/20 02:00:12;;;;;;;6.88;3.67;;;;;;;;;;5050614;28;20047;-78
2023/05/20 02:02:37;;;;;;;5.68;3.20;;;;;;;;;;5050791;28;20607;-78
2023/05/20 02:05:03;;;;;;;6.82;3.08;;;;;;;;;;5041385;28;20036;-77
2023/05/20 02:07:28;;;;;;;5.82;3.17;;;;;;;;;;5048358;28;20036;-78
2023/05/20 02:09:53;;;;;;;8.07;3.28;;;;;;;;;;5031929;28;20018;-77
2023/05/20 02:12:19;;;;;;;5.30;3.10;;;;;;;;;;5047907;28;20028;-78
2023/05/20 02:14:46;;;;;;;5.55;2.78;;;;;;;;;;5050787;28;20033;-77
2023/05/20 02:17:15;;;;;;;6.10;2.80;;;;;;;;;;5048776;28;20031;-78
2023/05/20 02:19:40;;;;;;;7.60;3.13;;;;;;;;;;5034091;28;20047;-78
2023/05/20 02:22:06;;;;;;;5.05;2.90;;;;;;;;;;5051044;28;20400;-77
2023/05/20 02:24:31;;;;;;;7.78;3.60;;;;;;;;;;5045315;28;20037;-77
2023/05/20 02:26:57;;;;;;;6.75;3.28;;;;;;;;;;5045760;28;20039;-78
2023/05/20 02:29:23;;;;;;;9.30;3.05;;;;;;;;;;5051455;28;20025;-78
2023/05/20 02:31:49;;;;;;;5.93;2.88;;;;;;;;;;5050408;28;20057;-77
2023/05/20 02:34:19;;;;;;;6.07;3.35;;;;;;;;;;5047167;28;20123;-78
2023/05/20 02:36:45;;;;;;;6.90;3.00;;;;;;;;;;5045790;28;20048;-78
2023/05/20 02:39:11;;;;;;;5.88;3.00;;;;;;;;;;5047161;28;20017;-78
2023/05/20 02:41:36;;;;;;;6.40;3.53;;;;;;;;;;5033167;28;20115;-78
2023/05/20 02:44:02;;;;;;;5.82;3.13;;;;;;;;;;5047690;28;20108;-77
2023/05/20 02:46:27;;;;;;;5.70;2.72;;;;;;;;;;5046185;28;20123;-77
2023/05/20 02:48:52;;;;;;;7.75;2.85;;;;;;;;;;5027881;28;21580;-78
2023/05/20 02:51:18;;;;;;;4.38;2.58;;;;;;;;;;5054133;28;20023;-78
2023/05/20 02:53:43;;;;;;;5.93;2.90;;;;;;;;;;5049821;28;20398;-77
2023/05/20 02:56:09;;;;;;;5.00;2.85;;;;;;;;;;5051277;28;20032;-77
2023/05/20 02:58:35;;;;;;;7.20;3.10;;;;;;;;;;5048766;28;20507;-77
2023/05/20 03:01:01;;;;;;;5.65;2.78;;;;;;;;;;5044583;28;20021;-78
2023/05/20 03:03:26;;;;;;;6.53;2.70;;;;;;;;;;5045348;28;20099;-77
2023/05/20 03:05:52;;;;;;;6.38;2.70;;;;;;;;;;5048476;28;20444;-77
2023/05/20 03:08:20;;;;;;;5.30;2.90;;;;;;;;;;5044103;28;20060;-78
2023/05/20 03:10:45;;;;;;;7.53;3.10;;;;;;;;;;5047969;28;20029;-77
2023/05/20 03:13:10;;;;;;;5.05;3.25;;;;;;;;;;5049204;28;20020;-77
2023/05/20 03:15:39;;;;;;;7.15;2.90;;;;;;;;;;5046207;28;20028;-77
2023/05/20 03:18:05;;;;;;;5.03;2.60;;;;;;;;;;5024204;28;20025;-78
2023/05/20 03:20:31;;;;;;;4.60;2.67;;;;;;;;;;5039472;28;20103;-78
2023/05/20 03:22:57;;;;;;;6.15;2.63;;;;;;;;;;5043140;28;20454;-78
2023/05/20 03:25:23;;;;;;;4.95;2.92;;;;;;;;;;5025640;28;20497;-78
2023/05/20 03:27:49;;;;;;;5.43;3.03;;;;;;;;;;5039707;28;20473;-77
2023/05/20 03:30:15;;;;;;;5.50;2.70;;;;;;;;;;5024447;28;20021;-78
2023/05/20 03:32:40;;;;;;;5.22;2.70;;;;;;;;;;5044779;28;20033;-78
2023/05/20 03:35:07;;;;;;;8.15;3.63;;;;;;;;;;5028913;28;20040;-78
2023/05/20 03:37:32;;;;;;;7.10;2.92;;;;;;;;;;5047870;28;20022;-78
2023/05/20 03:39:58;;;;;;;5.57;2.90;;;;;;;;;;5048978;28;20036;-77
2023/05/20 03:42:23;;;;;;;7.97;3.25;;;;;;;;;;5047177;28;20040;-77
2023/05/20 03:44:49;;;;;;;5.07;2.72;;;;;;;;;;5033644;28;20120;-78
2023/05/20 03:47:14;;;;;;;5.20;3.70;;;;;;;;;;5053877;28;20071;-78
2023/05/20 03:49:40;;;;;;;7.10;2.95;;;;;;;;;;5034831;28;20019;-78
2023/05/20 03:52:06;;;;;;;6.88;3.00;;;;;;;;;;5045606;28;20065;-77
2023/05/20 03:54:31;;;;;;;5.53;2.72;;;;;;;;;;5048180;28;20457;-78
2023/05/20 03:56:56;;;;;;;4.72;3.10;;;;;;;;;;5042783;28;20071;-78
2023/05/20 03:59:22;;;;;;;4.50;2.80;;;;;;;;;;5046810;28;20077;-77
2023/05/20 04:01:47;;;;;;;6.38;3.08;;;;;;;;;;5031164;28;20037;-78
2023/05/20 04:04:13;;;;;;;5.95;3.08;;;;;;;;;;5027642;28;20036;-78
2023/05/20 04:06:39;;;;;;;5.47;3.13;;;;;;;;;;5044699;28;20384;-78
2023/05/20 04:09:05;;;;;;;6.00;3.17;;;;;;;;;;5045983;28;20028;-78
2023/05/20 04:11:30;;;;;;;6.93;2.92;;;;;;;;;;5042563;28;20026;-78
2023/05/20 04:13:57;;;;;;;5.47;3.13;;;;;;;;;;5046880;28;20017;-78
2023/05/20 04:16:22;;;;;;;4.63;2.70;;;;;;;;;;5029092;28;20184;-78
2023/05/20 04:18:49;;;;;;;5.65;2.90;;;;;;;;;;5026467;28;20492;-77
2023/05/20 04:21:15;;;;;;;6.88;3.35;;;;;;;;;;5043716;28;20083;-78
2023/05/20 04:23:40;;;;;;;6.10;2.60;;;;;;;;;;5050504;28;20029;-78
2023/05/20 04:26:05;;;;;;;6.15;3.20;;;;;;;;;;5050053;28;20032;-78
2023/05/20 04:28:31;;;;;;;5.75;3.00;;;;;;;;;;5049914;28;20164;-78
2023/05/20 04:31:03;;;;;;;6.25;3.10;;;;;;;;;;5024013;28;20029;-78
2023/05/20 04:33:30;;;;;;;6.22;2.95;;;;;;;;;;5034925;28;20443;-77
2023/05/20 04:35:58;;;;;;;6.90;3.05;;;;;;;;;;5047814;28;20116;-78
2023/05/20 04:38:31;;;;;;;6.60;2.50;;;;;;;;;;5042372;28;20044;-78
2023/05/20 04:41:00;;;;;;;9.40;3.17;;;;;;;;;;5047557;28;20025;-77
2023/05/20 04:43:28;;;;;;;6.07;3.10;;;;;;;;;;5042242;28;20040;-78
2023/05/20 04:45:57;;;;;;;5.78;2.63;;;;;;;;;;5039066;28;20029;-78
2023/05/20 04:48:23;;;;;;;5.22;2.80;;;;;;;;;;5047206;28;20052;-78
2023/05/20 04:50:49;;;;;;;4.75;2.83;;;;;;;;;;5026580;28;20020;-77
2023/05/20 04:53:18;;;;;;;6.63;3.10;;;;;;;;;;5045256;28;20088;-78
2023/05/20 04:55:44;;;;;;;5.03;2.92;;;;;;;;;;5042468;28;20478;-77
2023/05/20 04:58:16;;;;;;;6.35;3.00;;;;;;;;;;5045571;28;20036;-77
2023/05/20 05:00:45;;;;;;;6.88;2.83;;;;;;;;;;5046940;28;20029;-77
2023/05/20 05:03:11;;;;;;;5.10;2.80;;;;;;;;;;5046031;28;20099;-77
2023/05/20 05:05:38;;;;;;;4.90;2.50;;;;;;;;;;5041210;28;20021;-78
2023/05/20 05:08:04;;;;;;;6.88;2.72;;;;;;;;;;5027223;28;20399;-78
2023/05/20 05:10:30;;;;;;;4.38;2.67;;;;;;;;;;5025371;28;20392;-77
2023/05/20 05:12:55;;;;;;;4.30;2.65;;;;;;;;;;5045086;28;20107;-77
2023/05/20 05:15:21;;;;;;;5.45;2.63;;;;;;;;;;5028766;28;20028;-78
2023/05/20 05:17:46;;;;;;;4.93;2.70;;;;;;;;;;5029364;28;20564;-77
2023/05/20 05:20:11;;;;;;;6.03;2.88;;;;;;;;;;5024285;28;20092;-77
2023/05/20 05:22:38;;;;;;;4.63;2.65;;;;;;;;;;5046747;28;20491;-77
2023/05/20 05:25:05;;;;;;;3.90;2.78;;;;;;;;;;5025300;28;20017;-77
2023/05/20 05:27:31;;;;;;;4.82;2.45;;;;;;;;;;5046779;28;20056;-77
2023/05/20 05:29:56;;;;;;;4.95;2.75;;;;;;;;;;5042296;28;20067;-77
2023/05/20 05:32:21;;;;;;;7.05;2.95;;;;;;;;;;5017610;28;20033;-77
2023/05/20 05:34:46;;;;;;;5.57;2.58;;;;;;;;;;5047341;28;20116;-77
2023/05/20 05:37:12;;;;;;;4.35;2.72;;;;;;;;;;5042553;28;20031;-78
2023/05/20 05:39:37;;;;;;;7.55;2.78;;;;;;;;;;5044006;28;20048;-77
2023/05/20 05:42:03;;;;;;;6.00;2.70;;;;;;;;;;5033516;28;20037;-77
2023/05/20 05:44:28;;;;;;;5.93;2.30;;;;;;;;;;5034970;28;20027;-77
2023/05/20 05:46:54;;;;;;;6.93;2.85;;;;;;;;;;5042130;28;20478;-77
2023/05/20 05:49:19;;;;;;;6.15;2.85;;;;;;;;;;5034393;28;20049;-77
2023/05/20 05:51:44;;;;;;;6.22;3.00;;;;;;;;;;5049990;28;20032;-77
2023/05/20 05:54:10;;;;;;;4.72;2.80;;;;;;;;;;5024839;28;20029;-78
2023/05/20 05:56:35;;;;;;;4.45;2.53;;;;;;;;;;5026248;28;20025;-77
2023/05/20 05:59:00;;;;;;;7.47;3.00;;;;;;;;;;5042233;28;20100;-77
2023/05/20 06:01:26;;;;;;;5.13;2.80;;;;;;;;;;5042211;28;20055;-78
2023/05/20 06:03:51;;;;;;;5.07;2.80;;;;;;;;;;5044771;28;20028;-76
2023/05/20 06:06:17;;;;;;;7.70;2.95;;;;;;;;;;5045504;28;20032;-78
2023/05/20 06:08:42;;;;;;;5.93;2.90;;;;;;;;;;5029554;28;20084;-77
2023/05/20 06:11:07;;;;;;;4.50;2.90;;;;;;;;;;5031844;28;20067;-78
2023/05/20 06:13:33;;;;;;;5.88;2.90;;;;;;;;;;5026644;28;20132;-78
2023/05/20 06:15:58;;;;;;;5.57;2.80;;;;;;;;;;5050113;28;20021;-77
2023/05/20 06:18:23;;;;;;;4.68;2.60;;;;;;;;;;5034734;28;20093;-78
2023/05/20 06:20:58;;;;;;;5.88;2.95;;;;;;;;;;5037385;28;20032;-78
2023/05/20 06:23:24;;;;;;;4.70;2.83;;;;;;;;;;5043081;28;20547;-78
2023/05/20 06:25:50;;;;;;;4.78;2.90;;;;;;;;;;5029909;28;20488;-77
2023/05/20 06:28:16;;;;;;;5.60;3.60;;;;;;;;;;5046135;28;20040;-76
2023/05/20 06:30:42;;;;;;;5.63;3.13;;;;;;;;;;5043598;28;20040;-77
2023/05/20 06:33:07;;;;;;;5.72;2.90;;;;;;;;;;5022985;28;20087;-76
2023/05/20 06:35:35;;;;;;;4.90;2.95;;;;;;;;;;5043598;28;20116;-78
2023/05/20 06:38:01;;;;;;;4.57;2.67;;;;;;;;;;5030479;28;20037;-77
2023/05/20 06:40:27;;;;;;;5.53;3.10;;;;;;;;;;5047129;28;20028;-77
2023/05/20 06:42:53;;;;;;;5.07;2.92;;;;;;;;;;5031624;28;20060;-78
2023/05/20 06:45:18;;;;;;;4.20;2.33;;;;;;;;;;5041628;28;20025;-77
2023/05/20 06:47:44;;;;;;;4.65;2.63;;;;;;;;;;5029915;28;20497;-78
2023/05/20 06:50:11;;;;;;;5.65;2.92;;;;;;;;;;5036807;28;20136;-77
2023/05/20 06:52:36;;;;;;;5.20;3.10;;;;;;;;;;5026545;28;20143;-78
2023/05/20 06:55:04;;;;;;;5.97;2.97;;;;;;;;;;5044532;28;20032;-77
2023/05/20 06:57:29;;;;;;;5.05;2.80;;;;;;;;;;5047438;28;20037;-78
2023/05/20 06:59:54;;;;;;;4.65;2.90;;;;;;;;;;5026562;28;20397;-77
2023/05/20 07:02:21;;;;;;;5.45;2.63;;;;;;;;;;5030914;28;20389;-78
2023/05/20 07:04:46;;;;;;;5.13;3.10;;;;;;;;;;5043729;28;20107;-77
2023/05/20 07:07:11;;;;;;;4.25;2.50;;;;;;;;;;5042370;28;20464;-78
2023/05/20 07:09:37;;;;;;;5.43;2.67;;;;;;;;;;5043078;28;20040;-77
2023/05/20 07:12:02;;;;;;;5.35;2.70;;;;;;;;;;5040314;28;20076;-78
2023/05/20 07:14:28;;;;;;;4.15;2.72;;;;;;;;;;5032914;28;20037;-78
2023/05/20 07:16:53;;;;;;;8.10;3.05;;;;;;;;;;5034667;28;20033;-78
2023/05/20 07:19:19;;;;;;;4.95;2.80;;;;;;;;;;5034634;28;20388;-78
2023/05/20 07:21:44;;;;;;;5.35;2.63;;;;;;;;;;5038536;28;20032;-76
2023/05/20 07:24:09;;;;;;;4.07;2.60;;;;;;;;;;5044130;28;20112;-78
2023/05/20 07:26:35;;;;;;;6.88;2.78;;;;;;;;;;5027510;28;20057;-76
2023/05/20 07:29:04;;;;;;;5.85;2.50;;;;;;;;;;5045237;28;20433;-78
2023/05/20 07:31:30;;;;;;;4.93;2.55;;;;;;;;;;5018113;28;20035;-77
2023/05/20 07:33:55;;;;;;;5.30;2.70;;;;;;;;;;5037578;28;20025;-77
2023/05/20 07:36:20;;;;;;;4.22;2.70;;;;;;;;;;5044864;28;20025;-77
2023/05/20 07:38:46;;;;;;;3.80;2.40;;;;;;;;;;5024113;28;20366;-77
2023/05/20 07:41:11;;;;;;;4.03;2.60;;;;;;;;;;5021769;28;20033;-78
2023/05/20 07:43:37;;;;;;;4.53;2.80;;;;;;;;;;5025302;28;20537;-78
2023/05/20 07:46:03;;;;;;;3.95;2.50;;;;;;;;;;5031412;28;20028;-77
2023/05/20 07:48:28;;;;;;;5.97;2.70;;;;;;;;;;5037375;28;20547;-76
2023/05/20 07:50:56;;;;;;;5.43;2.63;;;;;;;;;;5038506;28;20025;-77
2023/05/20 07:53:21;;;;;;;6.35;2.80;;;;;;;;;;5034362;28;20021;-77
2023/05/20 07:55:47;;;;;;;6.15;2.70;;;;;;;;;;5031392;28;20029;-77
2023/05/20 07:58:12;;;;;;;4.32;2.45;;;;;;;;;;5030114;28;20477;-77
2023/05/20 08:00:38;;;;;;;4.53;2.42;;;;;;;;;;5046535;28;20124;-77
2023/05/20 08:03:03;;;;;;;5.10;2.67;;;;;;;;;;5050762;28;20056;-78
2023/05/20 08:05:28;;;;;;;5.68;2.60;;;;;;;;;;5028795;28;20065;-77
2023/05/20 08:07:53;;;;;;;4.80;2.60;;;;;;;;;;5046556;28;20043;-76
2023/05/20 08:10:19;;;;;;;4.88;2.35;;;;;;;;;;5046629;28;20025;-77
2023/05/20 08:12:45;;;;;;;4.03;2.50;;;;;;;;;;5049321;28;20160;-77
2023/05/20 08:15:11;;;;;;;5.32;2.40;;;;;;;;;;5045033;28;20021;-78
2023/05/20 08:17:37;;;;;;;5.57;2.47;;;;;;;;;;5035372;28;20024;-77
2023/05/20 08:20:03;;;;;;;5.30;2.60;;;;;;;;;;5046025;28;20075;-77
2023/05/20 08:22:28;;;;;;;4.63;2.53;;;;;;;;;;5043315;28;20029;-77
2023/05/20 08:24:54;;;;;;;3.80;2.30;;;;;;;;;;5028950;28;20029;-76
2023/05/20 08:27:19;;;;;;;3.55;2.30;;;;;;;;;;5024393;28;20033;-77
2023/05/20 08:29:44;;;;;;;4.22;2.70;;;;;;;;;;5042429;28;20469;-78
2023/05/20 08:32:10;;;;;;;5.57;2.70;;;;;;;;;;5040593;28;20389;-77
2023/05/20 08:34:35;;;;;;;4.50;2.45;;;;;;;;;;5046814;28;20051;-77
2023/05/20 08:37:01;;;;;;;3.63;2.40;;;;;;;;;;5023106;28;20112;-78
2023/05/20 08:39:27;;;;;;;5.00;2.50;;;;;;;;;;5033589;28;20488;-78
2023/05/20 08:41:52;;;;;;;5.28;2.60;;;;;;;;;;5047690;28;20501;-78
2023/05/20 08:44:18;;;;;;;5.68;2.58;;;;;;;;;;5048890;28;20025;-77
2023/05/20 08:46:44;;;;;;;4.55;2.70;;;;;;;;;;5050345;28;20040;-77
2023/05/20 08:49:10;;;;;;;3.95;2.28;;;;;;;;;;5045203;28;20479;-76
2023/05/20 08:51:36;;;;;;;4.78;2.78;;;;;;;;;;5028400;28;20115;-78
2023/05/20 08:54:02;;;;;;;3.75;2.13;;;;;;;;;;5030922;28;20412;-78
2023/05/20 08:56:28;;;;;;;4.55;2.22;;;;;;;;;;5041353;28;20029;-77
2023/05/20 08:58:53;;;;;;;4.40;2.63;;;;;;;;;;5039352;28;20087;-78
2023/05/20 09:01:23;;;;;;;6.80;2.72;;;;;;;;;;5048093;28;20027;-77
2023/05/20 09:03:48;;;;;;;4.90;2.53;;;;;;;;;;5041510;28;20393;-77
2023/05/20 09:06:15;;;;;;;4.25;2.30;;;;;;;;;;5026884;28;20075;-77
2023/05/20 09:08:41;;;;;;;4.63;2.40;;;;;;;;;;5042210;28;20031;-77
2023/05/20 09:11:09;;;;;;;8.07;2.50;;;;;;;;;;5036781;28;20048;-77
2023/05/20 09:13:34;;;;;;;5.38;2.40;;;;;;;;;;5040991;28;20021;-78
2023/05/20 09:16:00;;;;;;;4.15;2.28;;;;;;;;;;5048963;28;20076;-79
2023/05/20 09:18:26;;;;;;;3.88;2.28;;;;;;;;;;5042002;28;20112;-79
2023/05/20 09:20:52;;;;;;;3.92;2.25;;;;;;;;;;5041313;28;20108;-79
2023/05/20 09:23:19;;;;;;;3.88;2.20;;;;;;;;;;5046148;28;20048;-79
2023/05/20 09:25:48;;;;;;;4.43;2.20;;;;;;;;;;5056396;28;20366;-75
2023/05/20 09:28:14;;;;;;;4.40;2.33;;;;;;;;;;5049788;28;20113;-75
2023/05/20 09:30:39;;;;;;;3.75;1.90;;;;;;;;;;5029891;28;20017;-75
2023/05/20 09:33:06;;;;;;;3.95;2.30;;;;;;;;;;5051812;28;20029;-77
2023/05/20 09:35:34;;;;;;;3.72;2.08;;;;;;;;;;5052356;28;20025;-76
2023/05/20 09:38:00;;;;;;;4.68;1.90;;;;;;;;;;5052951;28;20017;-75
2023/05/20 09:40:27;;;;;;;3.00;1.60;;;;;;;;;;5050596;28;20052;-75
2023/05/20 09:43:00;;;;;;;3.38;1.80;;;;;;;;;;5045930;28;20029;-76
2023/05/20 09:45:26;;;;;;;3.72;2.03;;;;;;;;;;5037830;28;20175;-76
2023/05/20 09:47:53;;;;;;;2.95;1.90;;;;;;;;;;5048776;28;20512;-76
2023/05/20 09:50:22;;;;;;;3.53;2.03;;;;;;;;;;5049397;28;20037;-75
2023/05/20 09:52:49;;;;;;;5.13;1.88;;;;;;;;;;5030908;28;20469;-76
2023/05/20 09:55:16;;;;;;;3.95;1.90;;;;;;;;;;5022314;28;20028;-76
2023/05/20 09:57:42;;;;;;;5.05;1.98;;;;;;;;;;5044952;28;20072;-75
2023/05/20 10:00:09;;;;;;;2.92;1.90;;;;;;;;;;5048615;28;20031;-76
2023/05/20 10:02:35;;;;;;;4.28;1.80;;;;;;;;;;5032160;28;20032;-75
2023/05/20 10:05:06;;;;;;;4.28;1.80;;;;;;;;;;5052686;28;20405;-76
2023/05/20 10:07:46;;;;;;;4.60;1.73;;;;;;;;;;5049400;28;20021;-76
2023/05/20 10:10:46;;;;;;;4.53;1.63;;;;;;;;;;5027547;28;20022;-75
2023/05/20 10:13:14;;;;;;;3.03;1.70;;;;;;;;;;5048981;28;20017;-75
2023/05/20 10:15:57;;;;;;;4.35;1.85;;;;;;;;;;5050911;28;20020;-76
2023/05/20 10:18:56;;;;;;;4.40;2.10;;;;;;;;;;5048516;28;20048;-75
2023/05/20 10:21:23;;;;;;;3.50;2.20;;;;;;;;;;5045785;28;20029;-76
2023/05/20 10:23:51;;;;;;;4.45;1.80;;;;;;;;;;5045129;28;20776;-74
2023/05/20 10:26:17;;;;;;;2.83;1.85;;;;;;;;;;5045079;28;20089;-75
2023/05/20 10:28:44;;;;;;;4.15;1.92;;;;;;;;;;5048025;28;20039;-75
2023/05/20 10:31:22;;;;;;;3.40;1.63;;;;;;;;;;5042736;28;20021;-76
2023/05/20 10:33:51;;;;;;;3.38;1.90;;;;;;;;;;5027802;28;21413;-75
2023/05/20 10:36:27;;;;;;;2.92;1.60;;;;;;;;;;5028448;28;20107;-75
2023/05/20 10:38:58;;;;;;;3.95;1.65;;;;;;;;;;5027679;28;20116;-76
2023/05/20 10:41:26;;;;;;;2.58;1.77;;;;;;;;;;5039081;28;20103;-75
2023/05/20 10:44:04;;;;;;;3.28;1.80;;;;;;;;;;5044948;28;20428;-76
2023/05/20 10:46:31;;;;;;;4.15;2.10;;;;;;;;;;5030586;28;20068;-76
2023/05/20 10:48:57;;;;;;;3.28;1.77;;;;;;;;;;5025487;28;20976;-76
2023/05/20 10:51:24;;;;;;;3.20;1.80;;;;;;;;;;5047422;28;20025;-76
2023/05/20 10:53:54;;;;;;;5.10;2.00;;;;;;;;;;5043321;28;20025;-75
2023/05/20 10:56:21;;;;;;;3.90;1.67;;;;;;;;;;5044950;28;20025;-75
2023/05/20 10:58:46;;;;;;;4.13;1.80;;;;;;;;;;5039711;28;20037;-75
2023/05/20 11:01:12;;;;;;;3.83;2.15;;;;;;;;;;5029704;28;20044;-76
2023/05/20 11:03:40;;;;;;;3.33;1.83;;;;;;;;;;5028501;28;20132;-75
2023/05/20 11:06:16;;;;;;;3.28;1.75;;;;;;;;;;5047732;28;20021;-76
2023/05/20 11:08:43;;;;;;;3.10;1.88;;;;;;;;;;5028934;28;20478;-75
2023/05/20 11:11:10;;;;;;;5.25;1.90;;;;;;;;;;5041404;28;20027;-76
2023/05/20 11:13:35;;;;;;;5.45;2.00;;;;;;;;;;5042320;28;20481;-76
2023/05/20 11:16:01;;;;;;;3.05;1.90;;;;;;;;;;5044669;28;20083;-74
2023/05/20 11:18:30;;;;;;;3.55;1.80;;;;;;;;;;5046418;28;20155;-75
2023/05/20 11:20:57;;;;;;;4.57;2.00;;;;;;;;;;5044017;28;20334;-75
2023/05/20 11:23:25;;;;;;;4.32;1.92;;;;;;;;;;5048309;28;20025;-75
2023/05/20 11:25:51;;;;;;;3.63;1.90;;;;;;;;;;5050396;28;20036;-75
2023/05/20 11:28:20;;;;;;;4.93;1.40;;;;;;;;;;5051098;28;20148;-75
2023/05/20 11:30:46;;;;;;;2.67;1.80;;;;;;;;;;5047726;28;20025;-75
2023/05/20 11:33:13;;;;;;;2.33;1.40;;;;;;;;;;5045669;28;20561;-75
2023/05/20 11:35:47;;;;;;;3.97;1.40;;;;;;;;;;5046751;28;20025;-75
2023/05/20 11:38:13;;;;;;;2.58;1.52;;;;;;;;;;5047478;28;20021;-75
2023/05/20 11:40:50;;;;;;;3.65;1.70;;;;;;;;;;5035422;28;20031;-75
2023/05/20 11:43:15;;;;;;;4.13;1.70;;;;;;;;;;5043501;28;20473;-75
2023/05/20 11:45:43;;;;;;;3.63;1.70;;;;;;;;;;5047415;28;20036;-75
2023/05/20 11:48:10;;;;;;;4.45;1.60;;;;;;;;;;5048971;28;20037;-75
2023/05/20 11:50:39;;;;;;;2.33;1.52;;;;;;;;;;5048470;28;20023;-75
2023/05/20 11:53:07;;;;;;;3.88;1.55;;;;;;;;;;5033691;28;20061;-75
2023/05/20 11:55:32;;;;;;;3.95;1.77;;;;;;;;;;5043188;28;20040;-75
2023/05/20 11:57:59;;;;;;;5.07;1.70;;;;;;;;;;5042128;28;20037;-75
2023/05/20 12:00:25;;;;;;;3.28;1.65;;;;;;;;;;5026671;28;20021;-75
2023/05/20 12:02:50;;;;;;;2.72;1.60;;;;;;;;;;5041512;28;20033;-75
2023/05/20 12:05:16;;;;;;;4.60;1.80;;;;;;;;;;5046379;28;20080;-76
2023/05/20 12:07:42;;;;;;;5.35;1.60;;;;;;;;;;5045949;28;20048;-75
2023/05/20 12:10:08;;;;;;;2.05;1.38;;;;;;;;;;5048618;28;20025;-75
2023/05/20 12:12:35;;;;;;;2.33;1.48;;;;;;;;;;5043307;28;20090;-75
2023/05/20 12:15:03;;;;;;;2.30;1.40;;;;;;;;;;5034480;28;20028;-75
2023/05/20 12:17:31;;;;;;;5.15;1.40;;;;;;;;;;5047242;28;20037;-76
2023/05/20 12:19:56;;;;;;;2.00;1.30;;;;;;;;;;5042461;28;20119;-75
2023/05/20 12:22:21;;;;;;;2.72;1.60;;;;;;;;;;5039084;28;20099;-75
2023/05/20 12:24:47;;;;;;;2.05;1.40;;;;;;;;;;5038438;28;20028;-75
2023/05/20 12:27:12;;;;;;;3.42;1.70;;;;;;;;;;5044684;28;20666;-75
2023/05/20 12:29:37;;;;;;;2.05;1.50;;;;;;;;;;5043162;28;20385;-76
2023/05/20 12:32:03;;;;;;;2.97;1.52;;;;;;;;;;5042469;28;20455;-75
2023/05/20 12:34:29;;;;;;;4.30;1.60;;;;;;;;;;5022588;28;20547;-75
2023/05/20 12:36:54;;;;;;;3.22;1.80;;;;;;;;;;5048109;28;20024;-75
2023/05/20 12:39:20;;;;;;;2.30;1.50;;;;;;;;;;5039702;28;20017;-75
2023/05/20 12:41:45;;;;;;;3.40;1.60;;;;;;;;;;5032688;28;20065;-75
2023/05/20 12:44:10;;;;;;;3.05;1.70;;;;;;;;;;5045950;28;20407;-75
2023/05/20 12:46:36;;;;;;;2.75;1.60;;;;;;;;;;5036031;28;20033;-75
2023/05/20 12:49:02;;;;;;;2.22;1.58;;;;;;;;;;5042220;28;20033;-75
2023/05/20 12:51:28;;;;;;;2.60;1.65;;;;;;;;;;5025403;28;20035;-77
2023/05/20 12:53:53;;;;;;;2.85;1.48;;;;;;;;;;5038848;28;20402;-76
2023/05/20 12:56:20;;;;;;;2.40;1.20;;;;;;;;;;5041436;28;20502;-76
2023/05/20 12:58:45;;;;;;;4.07;1.67;;;;;;;;;;5037038;28;20836;-75
2023/05/20 13:01:10;;;;;;;2.45;1.50;;;;;;;;;;5045670;28;20112;-77
2023/05/20 13:03:36;;;;;;;2.85;1.60;;;;;;;;;;5041634;28;20037;-76
2023/05/20 13:06:01;;;;;;;3.10;1.65;;;;;;;;;;5030514;28;20044;-77
2023/05/20 13:08:27;;;;;;;3.05;1.50;;;;;;;;;;5031512;28;20040;-76
2023/05/20 13:10:52;;;;;;;3.17;1.55;;;;;;;;;;5047312;28;20023;-76
2023/05/20 13:13:20;;;;;;;4.13;1.70;;;;;;;;;;5034627;28;20508;-77
2023/05/20 13:15:49;;;;;;;6.03;1.60;;;;;;;;;;5046976;28;20039;-76
2023/05/20 13:18:15;;;;;;;2.75;1.50;;;;;;;;;;5040649;28;20024;-77
2023/05/20 13:20:42;;;;;;;3.20;1.60;;;;;;;;;;5039684;28;20029;-76
2023/05/20 13:23:08;;;;;;;4.63;1.48;;;;;;;;;;5045917;28;20060;-76
2023/05/20 13:25:33;;;;;;;2.63;1.50;;;;;;;;;;5045986;28;20052;-74
2023/05/20 13:27:59;;;;;;;3.30;1.60;;;;;;;;;;5043073;28;20021;-74
2023/05/20 13:30:24;;;;;;;2.30;1.52;;;;;;;;;;5041081;28;20076;-74
2023/05/20 13:32:50;;;;;;;2.85;1.55;;;;;;;;;;5055897;28;20033;-74
2023/05/20 13:35:16;;;;;;;3.08;1.60;;;;;;;;;;5037770;28;20024;-74
2023/05/20 13:37:41;;;;;;;2.22;1.48;;;;;;;;;;5045500;28;20127;-74
2023/05/20 13:40:08;;;;;;;2.80;1.50;;;;;;;;;;5043089;28;20060;-74
2023/05/20 13:42:33;;;;;;;2.58;1.55;;;;;;;;;;5056771;28;20084;-74
2023/05/20 13:44:58;;;;;;;2.45;1.30;;;;;;;;;;5054245;28;20064;-74
2023/05/20 13:47:24;;;;;;;2.55;1.25;;;;;;;;;;5060005;28;20092;-74
2023/05/20 13:49:49;;;;;;;5.43;1.38;;;;;;;;;;5055365;28;20021;-74
2023/05/20 13:52:14;;;;;;;2.00;1.40;;;;;;;;;;5060274;28;20067;-74
2023/05/20 13:54:41;;;;;;;5.32;1.75;;;;;;;;;;5055795;28;20056;-74
2023/05/20 13:57:07;;;;;;;3.35;1.42;;;;;;;;;;5051713;28;20021;-74
2023/05/20 13:59:33;;;;;;;2.63;1.38;;;;;;;;;;5054343;28;20361;-73
2023/05/20 14:01:58;;;;;;;2.67;1.40;;;;;;;;;;5057827;28;20024;-74
2023/05/20 14:04:24;;;;;;;3.53;1.50;;;;;;;;;;5049003;28;20096;-74
2023/05/20 14:06:49;;;;;;;5.93;1.40;;;;;;;;;;5029265;28;20040;-74
2023/05/20 14:09:15;;;;;;;2.33;1.50;;;;;;;;;;5040732;28;20067;-75
2023/05/20 14:11:40;;;;;;;2.90;1.55;;;;;;;;;;5038359;28;20036;-75
2023/05/20 14:14:05;;;;;;;2.67;1.65;;;;;;;;;;5044790;28;20523;-74
2023/05/20 14:16:31;;;;;;;3.00;1.60;;;;;;;;;;5063569;28;20413;-74
2023/05/20 14:18:57;;;;;;;2.63;1.55;;;;;;;;;;5044017;28;20048;-75
2023/05/20 14:21:22;;;;;;;2.17;1.52;;;;;;;;;;5058661;28;20017;-74
2023/05/20 14:23:48;;;;;;;2.08;1.35;;;;;;;;;;5042122;28;20199;-74
2023/05/20 14:26:13;;;;;;;2.60;1.50;;;;;;;;;;5065055;28;20053;-74
2023/05/20 14:28:39;;;;;;;3.60;1.75;;;;;;;;;;5057383;28;20056;-75
2023/05/20 14:31:04;;;;;;;2.50;1.40;;;;;;;;;;5043723;28;20037;-74
2023/05/20 14:33:30;;;;;;;3.00;1.58;;;;;;;;;;5062422;28;20048;-75
2023/05/20 14:35:55;;;;;;;7.15;1.63;;;;;;;;;;5064148;28;20036;-74
2023/05/20 14:38:21;;;;;;;3.17;1.35;;;;;;;;;;5063248;28;20024;-74